sensor_id;sensor_type;location;lat;lon;timestamp;pressure;altitude;pressure_sealevel;temperature;humidity
24336;BME280;33098;52.400;16.880;2022-07-06T00:01:12;100996.52;;;20.85;54.41
24336;BME280;33098;52.400;16.880;2022-07-06T00:03:39;101000.42;;;20.83;54.61
24336;BME280;33098;52.400;16.880;2022-07-06T00:06:05;101003.27;;;20.83;54.60
24336;BME280;33098;52.400;16.880;2022-07-06T00:08:32;101000.11;;;20.79;54.88
24336;BME280;33098;52.400;16.880;2022-07-06T00:10:59;100994.70;;;20.76;54.82
24336;BME280;33098;52.400;16.880;2022-07-06T00:13:26;100991.06;;;20.75;55.02
24336;BME280;33098;52.400;16.880;2022-07-06T00:15:53;100986.27;;;20.71;55.13
24336;BME280;33098;52.400;16.880;2022-07-06T00:18:19;100984.08;;;20.69;55.36
24336;BME280;33098;52.400;16.880;2022-07-06T00:20:46;100979.70;;;20.65;55.71
24336;BME280;33098;52.400;16.880;2022-07-06T00:23:13;100974.41;;;20.59;55.69
24336;BME280;33098;52.400;16.880;2022-07-06T00:25:39;100978.73;;;20.51;55.98
24336;BME280;33098;52.400;16.880;2022-07-06T00:28:06;100972.40;;;20.53;56.15
24336;BME280;33098;52.400;16.880;2022-07-06T00:30:33;100976.27;;;20.55;56.34
24336;BME280;33098;52.400;16.880;2022-07-06T00:32:59;100979.02;;;20.55;56.25
24336;BME280;33098;52.400;16.880;2022-07-06T00:35:26;100981.96;;;20.56;56.51
24336;BME280;33098;52.400;16.880;2022-07-06T00:37:54;100979.73;;;20.57;56.53
24336;BME280;33098;52.400;16.880;2022-07-06T00:40:20;100983.58;;;20.56;56.65
24336;BME280;33098;52.400;16.880;2022-07-06T00:42:48;100982.45;;;20.50;56.75
24336;BME280;33098;52.400;16.880;2022-07-06T00:45:16;100984.04;;;20.47;56.82
24336;BME280;33098;52.400;16.880;2022-07-06T00:47:43;100985.67;;;20.47;57.01
24336;BME280;33098;52.400;16.880;2022-07-06T00:50:13;100985.20;;;20.43;57.14
24336;BME280;33098;52.400;16.880;2022-07-06T00:52:54;100985.48;;;20.40;57.32
24336;BME280;33098;52.400;16.880;2022-07-06T00:55:23;100991.88;;;20.36;57.19
24336;BME280;33098;52.400;16.880;2022-07-06T00:57:51;100989.85;;;20.30;57.46
24336;BME280;33098;52.400;16.880;2022-07-06T01:00:20;100987.04;;;20.25;57.56
24336;BME280;33098;52.400;16.880;2022-07-06T01:02:47;100988.80;;;20.17;57.66
24336;BME280;33098;52.400;16.880;2022-07-06T01:05:15;100988.44;;;20.09;57.88
24336;BME280;33098;52.400;16.880;2022-07-06T01:07:43;100990.56;;;20.03;58.10
24336;BME280;33098;52.400;16.880;2022-07-06T01:10:12;100995.46;;;20.02;58.26
24336;BME280;33098;52.400;16.880;2022-07-06T01:12:40;100999.01;;;19.98;58.29
24336;BME280;33098;52.400;16.880;2022-07-06T01:15:10;100995.49;;;19.94;58.57
24336;BME280;33098;52.400;16.880;2022-07-06T01:17:39;100993.07;;;19.88;58.76
24336;BME280;33098;52.400;16.880;2022-07-06T01:22:38;100992.70;;;19.74;59.27
24336;BME280;33098;52.400;16.880;2022-07-06T01:25:06;100989.64;;;19.63;59.50
24336;BME280;33098;52.400;16.880;2022-07-06T01:27:38;100990.20;;;19.48;59.66
24336;BME280;33098;52.400;16.880;2022-07-06T01:30:06;100988.56;;;19.41;60.01
24336;BME280;33098;52.400;16.880;2022-07-06T01:32:35;100993.92;;;19.50;60.39
24336;BME280;33098;52.400;16.880;2022-07-06T01:35:03;100996.02;;;19.56;60.39
24336;BME280;33098;52.400;16.880;2022-07-06T01:37:31;100992.97;;;19.51;60.42
24336;BME280;33098;52.400;16.880;2022-07-06T01:40:02;100995.52;;;19.42;60.65
24336;BME280;33098;52.400;16.880;2022-07-06T01:42:30;100990.86;;;19.38;61.06
24336;BME280;33098;52.400;16.880;2022-07-06T01:45:00;100983.56;;;19.37;61.16
24336;BME280;33098;52.400;16.880;2022-07-06T01:47:26;100986.34;;;19.37;61.24
24336;BME280;33098;52.400;16.880;2022-07-06T01:49:53;100984.59;;;19.28;61.36
24336;BME280;33098;52.400;16.880;2022-07-06T01:52:21;100985.52;;;19.24;61.62
24336;BME280;33098;52.400;16.880;2022-07-06T01:54:48;100983.64;;;19.22;61.92
24336;BME280;33098;52.400;16.880;2022-07-06T01:57:14;100984.73;;;19.23;62.13
24336;BME280;33098;52.400;16.880;2022-07-06T01:59:42;100989.44;;;19.30;62.35
24336;BME280;33098;52.400;16.880;2022-07-06T02:02:08;100988.48;;;19.34;62.24
24336;BME280;33098;52.400;16.880;2022-07-06T02:04:35;100992.19;;;19.32;62.29
24336;BME280;33098;52.400;16.880;2022-07-06T02:07:02;100984.52;;;19.18;62.39
24336;BME280;33098;52.400;16.880;2022-07-06T02:09:29;100984.51;;;19.12;62.73
24336;BME280;33098;52.400;16.880;2022-07-06T02:11:58;100987.77;;;19.11;62.98
24336;BME280;33098;52.400;16.880;2022-07-06T02:14:24;100990.72;;;19.12;63.15
24336;BME280;33098;52.400;16.880;2022-07-06T02:16:51;100992.82;;;19.18;63.28
24336;BME280;33098;52.400;16.880;2022-07-06T02:19:18;100990.27;;;19.25;63.30
24336;BME280;33098;52.400;16.880;2022-07-06T02:21:45;100993.48;;;19.25;63.19
24336;BME280;33098;52.400;16.880;2022-07-06T02:24:12;100994.70;;;19.14;63.13
24336;BME280;33098;52.400;16.880;2022-07-06T02:26:39;101003.96;;;19.06;63.40
24336;BME280;33098;52.400;16.880;2022-07-06T02:29:05;101005.67;;;19.05;63.44
24336;BME280;33098;52.400;16.880;2022-07-06T02:31:32;101007.47;;;19.02;63.31
24336;BME280;33098;52.400;16.880;2022-07-06T02:33:59;101008.48;;;18.99;63.44
24336;BME280;33098;52.400;16.880;2022-07-06T02:36:26;101010.05;;;18.96;63.44
24336;BME280;33098;52.400;16.880;2022-07-06T02:38:52;101013.13;;;18.98;63.67
24336;BME280;33098;52.400;16.880;2022-07-06T02:41:19;101017.16;;;19.04;63.70
24336;BME280;33098;52.400;16.880;2022-07-06T02:43:46;101012.30;;;19.09;63.71
24336;BME280;33098;52.400;16.880;2022-07-06T02:46:12;101011.53;;;19.13;63.75
24336;BME280;33098;52.400;16.880;2022-07-06T02:48:39;101014.40;;;19.13;63.73
24336;BME280;33098;52.400;16.880;2022-07-06T02:51:06;101013.38;;;19.18;63.75
24336;BME280;33098;52.400;16.880;2022-07-06T02:53:34;101014.46;;;19.23;63.69
24336;BME280;33098;52.400;16.880;2022-07-06T02:56:00;101015.85;;;19.23;63.64
24336;BME280;33098;52.400;16.880;2022-07-06T02:58:28;101019.65;;;19.18;63.68
24336;BME280;33098;52.400;16.880;2022-07-06T03:00:55;101023.48;;;19.05;63.72
24336;BME280;33098;52.400;16.880;2022-07-06T03:03:22;101024.98;;;18.95;63.95
24336;BME280;33098;52.400;16.880;2022-07-06T03:05:49;101029.35;;;18.89;64.27
24336;BME280;33098;52.400;16.880;2022-07-06T03:08:16;101030.95;;;18.87;64.36
24336;BME280;33098;52.400;16.880;2022-07-06T03:10:43;101031.14;;;18.82;64.54
24336;BME280;33098;52.400;16.880;2022-07-06T03:13:09;101029.98;;;18.77;64.65
24336;BME280;33098;52.400;16.880;2022-07-06T03:15:37;101029.40;;;18.67;64.87
24336;BME280;33098;52.400;16.880;2022-07-06T03:18:03;101029.60;;;18.74;65.17
24336;BME280;33098;52.400;16.880;2022-07-06T03:20:30;101023.57;;;18.80;65.18
24336;BME280;33098;52.400;16.880;2022-07-06T03:22:57;101024.52;;;18.80;65.28
24336;BME280;33098;52.400;16.880;2022-07-06T03:25:23;101022.17;;;18.85;65.51
24336;BME280;33098;52.400;16.880;2022-07-06T03:27:53;101018.05;;;18.92;65.69
24336;BME280;33098;52.400;16.880;2022-07-06T03:30:21;101018.42;;;18.97;65.61
24336;BME280;33098;52.400;16.880;2022-07-06T03:32:52;101020.60;;;18.95;65.59
24336;BME280;33098;52.400;16.880;2022-07-06T03:35:19;101017.61;;;18.88;65.73
24336;BME280;33098;52.400;16.880;2022-07-06T03:37:46;101012.92;;;18.79;65.86
24336;BME280;33098;52.400;16.880;2022-07-06T03:40:13;101012.78;;;18.75;66.22
24336;BME280;33098;52.400;16.880;2022-07-06T03:42:41;101011.58;;;18.81;66.47
24336;BME280;33098;52.400;16.880;2022-07-06T03:45:09;101010.67;;;18.88;66.60
24336;BME280;33098;52.400;16.880;2022-07-06T03:47:35;101014.95;;;18.92;66.83
24336;BME280;33098;52.400;16.880;2022-07-06T03:50:03;101016.52;;;19.03;66.95
24336;BME280;33098;52.400;16.880;2022-07-06T03:52:30;101020.35;;;19.20;66.89
24336;BME280;33098;52.400;16.880;2022-07-06T03:54:57;101025.38;;;19.32;66.76
24336;BME280;33098;52.400;16.880;2022-07-06T03:57:26;101024.29;;;19.37;66.50
24336;BME280;33098;52.400;16.880;2022-07-06T03:59:53;101020.95;;;19.39;66.51
24336;BME280;33098;52.400;16.880;2022-07-06T04:02:21;101016.27;;;19.43;66.41
24336;BME280;33098;52.400;16.880;2022-07-06T04:04:49;101016.48;;;19.44;66.38
24336;BME280;33098;52.400;16.880;2022-07-06T04:07:15;101016.48;;;19.46;66.48
24336;BME280;33098;52.400;16.880;2022-07-06T04:09:42;101019.42;;;19.51;66.65
24336;BME280;33098;52.400;16.880;2022-07-06T04:12:09;101020.38;;;19.55;66.52
24336;BME280;33098;52.400;16.880;2022-07-06T04:14:35;101024.20;;;19.61;66.47
24336;BME280;33098;52.400;16.880;2022-07-06T04:17:03;101026.98;;;19.66;66.59
24336;BME280;33098;52.400;16.880;2022-07-06T04:19:50;101025.80;;;19.65;66.51
24336;BME280;33098;52.400;16.880;2022-07-06T04:22:17;101025.48;;;19.65;66.65
24336;BME280;33098;52.400;16.880;2022-07-06T04:24:44;101020.98;;;19.65;66.59
24336;BME280;33098;52.400;16.880;2022-07-06T04:27:10;101023.36;;;19.62;66.69
24336;BME280;33098;52.400;16.880;2022-07-06T04:29:37;101022.70;;;19.65;66.91
24336;BME280;33098;52.400;16.880;2022-07-06T04:32:04;101023.58;;;19.67;66.78
24336;BME280;33098;52.400;16.880;2022-07-06T04:34:31;101024.23;;;19.69;66.85
24336;BME280;33098;52.400;16.880;2022-07-06T04:37:00;101022.56;;;19.73;66.85
24336;BME280;33098;52.400;16.880;2022-07-06T04:39:27;101019.40;;;19.79;66.96
24336;BME280;33098;52.400;16.880;2022-07-06T04:41:56;101016.58;;;19.84;66.82
24336;BME280;33098;52.400;16.880;2022-07-06T04:44:23;101015.05;;;19.88;66.85
24336;BME280;33098;52.400;16.880;2022-07-06T04:46:49;101009.52;;;19.91;66.95
24336;BME280;33098;52.400;16.880;2022-07-06T04:49:16;101007.41;;;19.94;66.87
24336;BME280;33098;52.400;16.880;2022-07-06T04:51:43;101001.58;;;19.94;66.76
24336;BME280;33098;52.400;16.880;2022-07-06T04:54:09;100999.85;;;20.00;66.90
24336;BME280;33098;52.400;16.880;2022-07-06T04:56:36;100998.10;;;20.05;66.85
24336;BME280;33098;52.400;16.880;2022-07-06T04:59:03;100994.41;;;20.10;67.06
24336;BME280;33098;52.400;16.880;2022-07-06T05:01:29;100996.70;;;20.16;67.07
24336;BME280;33098;52.400;16.880;2022-07-06T05:03:56;100997.24;;;20.16;66.97
24336;BME280;33098;52.400;16.880;2022-07-06T05:06:24;101002.10;;;20.14;67.00
24336;BME280;33098;52.400;16.880;2022-07-06T05:08:51;100999.68;;;20.14;67.13
24336;BME280;33098;52.400;16.880;2022-07-06T05:11:18;101000.35;;;20.17;67.05
24336;BME280;33098;52.400;16.880;2022-07-06T05:13:44;101004.91;;;20.20;67.22
24336;BME280;33098;52.400;16.880;2022-07-06T05:16:11;101001.30;;;20.23;67.07
24336;BME280;33098;52.400;16.880;2022-07-06T05:18:37;101004.73;;;20.21;67.28
24336;BME280;33098;52.400;16.880;2022-07-06T05:21:04;101004.90;;;20.22;67.33
24336;BME280;33098;52.400;16.880;2022-07-06T05:23:31;101005.80;;;20.22;67.28
24336;BME280;33098;52.400;16.880;2022-07-06T05:25:58;101002.98;;;20.16;67.22
24336;BME280;33098;52.400;16.880;2022-07-06T05:28:25;100997.00;;;20.15;67.47
24336;BME280;33098;52.400;16.880;2022-07-06T05:30:51;100996.58;;;20.19;67.50
24336;BME280;33098;52.400;16.880;2022-07-06T05:33:18;100991.66;;;20.22;67.58
24336;BME280;33098;52.400;16.880;2022-07-06T05:35:45;100986.75;;;20.28;67.82
24336;BME280;33098;52.400;16.880;2022-07-06T05:38:12;100987.52;;;20.37;67.69
24336;BME280;33098;52.400;16.880;2022-07-06T05:40:39;100982.35;;;20.48;67.57
24336;BME280;33098;52.400;16.880;2022-07-06T05:43:06;100984.48;;;20.53;67.20
24336;BME280;33098;52.400;16.880;2022-07-06T05:45:34;100985.69;;;20.61;67.02
24336;BME280;33098;52.400;16.880;2022-07-06T05:48:01;100991.96;;;20.78;66.87
24336;BME280;33098;52.400;16.880;2022-07-06T05:50:47;100995.15;;;20.93;66.51
24336;BME280;33098;52.400;16.880;2022-07-06T05:53:13;100995.88;;;21.04;66.06
24336;BME280;33098;52.400;16.880;2022-07-06T05:55:40;100993.45;;;21.16;65.79
24336;BME280;33098;52.400;16.880;2022-07-06T05:58:07;100995.27;;;21.26;65.32
24336;BME280;33098;52.400;16.880;2022-07-06T06:00:34;100996.66;;;21.36;64.89
24336;BME280;33098;52.400;16.880;2022-07-06T06:03:02;100999.88;;;21.45;64.33
24336;BME280;33098;52.400;16.880;2022-07-06T06:05:30;101002.87;;;21.52;64.00
24336;BME280;33098;52.400;16.880;2022-07-06T06:08:03;101003.06;;;21.55;63.23
24336;BME280;33098;52.400;16.880;2022-07-06T06:10:30;101000.55;;;21.53;63.01
24336;BME280;33098;52.400;16.880;2022-07-06T06:12:58;100995.91;;;21.54;62.89
24336;BME280;33098;52.400;16.880;2022-07-06T06:15:25;100988.98;;;21.64;62.61
24336;BME280;33098;52.400;16.880;2022-07-06T06:17:52;100983.58;;;21.70;62.07
24336;BME280;33098;52.400;16.880;2022-07-06T06:20:19;100981.55;;;21.75;61.57
24336;BME280;33098;52.400;16.880;2022-07-06T06:22:51;100982.84;;;21.72;61.26
24336;BME280;33098;52.400;16.880;2022-07-06T06:25:30;100983.00;;;21.77;61.08
24336;BME280;33098;52.400;16.880;2022-07-06T06:27:58;100987.55;;;21.94;61.37
24336;BME280;33098;52.400;16.880;2022-07-06T06:30:25;100985.48;;;22.14;61.39
24336;BME280;33098;52.400;16.880;2022-07-06T06:35:33;100988.31;;;22.26;60.29
24336;BME280;33098;52.400;16.880;2022-07-06T06:38:00;100986.54;;;22.35;60.36
24336;BME280;33098;52.400;16.880;2022-07-06T06:40:27;100987.35;;;22.44;59.69
24336;BME280;33098;52.400;16.880;2022-07-06T06:42:53;100985.27;;;22.36;59.51
24336;BME280;33098;52.400;16.880;2022-07-06T06:45:20;100987.63;;;22.27;59.07
24336;BME280;33098;52.400;16.880;2022-07-06T06:47:46;100988.14;;;22.08;58.72
24336;BME280;33098;52.400;16.880;2022-07-06T06:50:13;100988.85;;;21.90;58.57
24336;BME280;33098;52.400;16.880;2022-07-06T06:52:39;100992.03;;;21.78;58.80
24336;BME280;33098;52.400;16.880;2022-07-06T06:55:06;100991.86;;;21.64;58.83
24336;BME280;33098;52.400;16.880;2022-07-06T06:57:33;100991.80;;;21.57;59.05
24336;BME280;33098;52.400;16.880;2022-07-06T06:59:59;100991.81;;;21.50;59.32
24336;BME280;33098;52.400;16.880;2022-07-06T07:02:26;100989.46;;;21.49;59.57
24336;BME280;33098;52.400;16.880;2022-07-06T07:04:52;100988.45;;;21.48;59.79
24336;BME280;33098;52.400;16.880;2022-07-06T07:07:19;100991.80;;;21.50;60.12
24336;BME280;33098;52.400;16.880;2022-07-06T07:09:45;100988.66;;;21.51;59.92
24336;BME280;33098;52.400;16.880;2022-07-06T07:12:12;100985.89;;;21.52;59.92
24336;BME280;33098;52.400;16.880;2022-07-06T07:14:38;100987.48;;;21.55;60.63
24336;BME280;33098;52.400;16.880;2022-07-06T07:17:05;100987.01;;;21.51;62.08
24336;BME280;33098;52.400;16.880;2022-07-06T07:19:31;100989.11;;;21.28;65.14
24336;BME280;33098;52.400;16.880;2022-07-06T07:21:58;100995.14;;;21.02;67.00
24336;BME280;33098;52.400;16.880;2022-07-06T07:24:24;100992.80;;;20.96;67.33
24336;BME280;33098;52.400;16.880;2022-07-06T07:26:51;100997.95;;;20.95;67.98
24336;BME280;33098;52.400;16.880;2022-07-06T07:29:17;101005.30;;;21.05;69.08
24336;BME280;33098;52.400;16.880;2022-07-06T07:31:44;101007.27;;;21.07;71.27
24336;BME280;33098;52.400;16.880;2022-07-06T07:34:10;101016.15;;;21.03;70.86
24336;BME280;33098;52.400;16.880;2022-07-06T07:36:37;101023.71;;;21.07;70.52
24336;BME280;33098;52.400;16.880;2022-07-06T07:39:04;101021.29;;;21.01;70.78
24336;BME280;33098;52.400;16.880;2022-07-06T07:41:31;101021.84;;;20.93;72.20
24336;BME280;33098;52.400;16.880;2022-07-06T07:43:57;101031.71;;;20.67;73.26
24336;BME280;33098;52.400;16.880;2022-07-06T07:46:24;101040.84;;;20.42;74.86
24336;BME280;33098;52.400;16.880;2022-07-06T07:48:50;101042.45;;;20.24;75.96
24336;BME280;33098;52.400;16.880;2022-07-06T07:51:18;101042.92;;;20.07;76.10
24336;BME280;33098;52.400;16.880;2022-07-06T07:53:45;101053.73;;;19.92;76.28
24336;BME280;33098;52.400;16.880;2022-07-06T07:56:12;101065.13;;;19.78;76.36
24336;BME280;33098;52.400;16.880;2022-07-06T07:58:39;101071.42;;;19.71;76.25
24336;BME280;33098;52.400;16.880;2022-07-06T08:01:05;101071.91;;;19.61;75.99
24336;BME280;33098;52.400;16.880;2022-07-06T08:03:32;101072.55;;;19.49;76.00
24336;BME280;33098;52.400;16.880;2022-07-06T08:05:58;101076.54;;;19.41;76.30
24336;BME280;33098;52.400;16.880;2022-07-06T08:08:25;101080.02;;;19.42;76.80
24336;BME280;33098;52.400;16.880;2022-07-06T08:10:52;101083.30;;;19.46;76.69
24336;BME280;33098;52.400;16.880;2022-07-06T08:13:18;101088.79;;;19.50;76.80
24336;BME280;33098;52.400;16.880;2022-07-06T08:15:45;101086.61;;;19.45;76.80
24336;BME280;33098;52.400;16.880;2022-07-06T08:18:12;101094.44;;;19.44;76.98
24336;BME280;33098;52.400;16.880;2022-07-06T08:20:38;101096.27;;;19.46;77.30
24336;BME280;33098;52.400;16.880;2022-07-06T08:23:05;101101.24;;;19.52;77.61
24336;BME280;33098;52.400;16.880;2022-07-06T08:25:31;101102.58;;;19.57;77.60
24336;BME280;33098;52.400;16.880;2022-07-06T08:27:58;101098.04;;;19.61;77.37
24336;BME280;33098;52.400;16.880;2022-07-06T08:30:24;101098.96;;;19.64;77.11
24336;BME280;33098;52.400;16.880;2022-07-06T08:32:51;101100.46;;;19.74;77.07
24336;BME280;33098;52.400;16.880;2022-07-06T08:35:18;101100.04;;;19.82;76.97
24336;BME280;33098;52.400;16.880;2022-07-06T08:37:44;101102.77;;;19.86;76.97
24336;BME280;33098;52.400;16.880;2022-07-06T08:40:12;101102.74;;;19.97;76.93
24336;BME280;33098;52.400;16.880;2022-07-06T08:42:38;101102.05;;;20.08;76.77
24336;BME280;33098;52.400;16.880;2022-07-06T08:45:06;101103.68;;;20.18;76.32
24336;BME280;33098;52.400;16.880;2022-07-06T08:47:35;101094.79;;;20.30;75.96
24336;BME280;33098;52.400;16.880;2022-07-06T08:50:04;101096.10;;;20.43;75.49
24336;BME280;33098;52.400;16.880;2022-07-06T08:52:31;101093.49;;;20.53;74.98
24336;BME280;33098;52.400;16.880;2022-07-06T08:54:58;101099.02;;;20.60;74.85
24336;BME280;33098;52.400;16.880;2022-07-06T08:57:26;101104.88;;;20.68;74.72
24336;BME280;33098;52.400;16.880;2022-07-06T08:59:52;101105.64;;;20.76;74.58
24336;BME280;33098;52.400;16.880;2022-07-06T09:02:19;101103.95;;;20.91;74.82
24336;BME280;33098;52.400;16.880;2022-07-06T09:04:51;101098.40;;;21.05;74.00
24336;BME280;33098;52.400;16.880;2022-07-06T09:07:20;101097.97;;;21.19;73.40
24336;BME280;33098;52.400;16.880;2022-07-06T09:09:49;101095.45;;;21.33;72.43
24336;BME280;33098;52.400;16.880;2022-07-06T09:12:15;101090.98;;;21.44;71.49
24336;BME280;33098;52.400;16.880;2022-07-06T09:14:42;101093.27;;;21.50;70.45
24336;BME280;33098;52.400;16.880;2022-07-06T09:17:08;101091.86;;;21.57;69.63
24336;BME280;33098;52.400;16.880;2022-07-06T09:19:35;101093.70;;;21.64;68.81
24336;BME280;33098;52.400;16.880;2022-07-06T09:22:03;101094.84;;;21.70;68.01
24336;BME280;33098;52.400;16.880;2022-07-06T09:24:30;101100.46;;;21.72;67.44
24336;BME280;33098;52.400;16.880;2022-07-06T09:27:01;101097.97;;;21.75;66.53
24336;BME280;33098;52.400;16.880;2022-07-06T09:29:31;101099.85;;;21.70;66.08
24336;BME280;33098;52.400;16.880;2022-07-06T09:31:59;101097.79;;;21.63;64.88
24336;BME280;33098;52.400;16.880;2022-07-06T09:34:55;101095.52;;;21.53;64.78
24336;BME280;33098;52.400;16.880;2022-07-06T09:37:22;101091.31;;;21.58;64.61
24336;BME280;33098;52.400;16.880;2022-07-06T09:39:51;101084.94;;;21.78;64.61
24336;BME280;33098;52.400;16.880;2022-07-06T09:42:24;101084.00;;;21.92;64.37
24336;BME280;33098;52.400;16.880;2022-07-06T09:44:52;101085.92;;;21.97;63.22
24336;BME280;33098;52.400;16.880;2022-07-06T09:47:19;101088.27;;;21.97;63.26
24336;BME280;33098;52.400;16.880;2022-07-06T09:49:46;101085.77;;;21.89;62.51
24336;BME280;33098;52.400;16.880;2022-07-06T09:52:16;101083.45;;;21.87;62.69
24336;BME280;33098;52.400;16.880;2022-07-06T09:54:48;101077.58;;;22.04;63.10
24336;BME280;33098;52.400;16.880;2022-07-06T09:57:15;101082.02;;;22.19;62.77
24336;BME280;33098;52.400;16.880;2022-07-06T09:59:41;101078.37;;;22.15;61.85
24336;BME280;33098;52.400;16.880;2022-07-06T10:02:08;101081.27;;;21.98;61.07
24336;BME280;33098;52.400;16.880;2022-07-06T10:04:35;101079.88;;;21.79;60.76
24336;BME280;33098;52.400;16.880;2022-07-06T10:07:03;101080.27;;;21.71;60.39
24336;BME280;33098;52.400;16.880;2022-07-06T10:09:30;101082.65;;;21.55;59.85
24336;BME280;33098;52.400;16.880;2022-07-06T10:12:00;101083.42;;;21.40;58.46
24336;BME280;33098;52.400;16.880;2022-07-06T10:14:30;101078.34;;;21.32;59.78
24336;BME280;33098;52.400;16.880;2022-07-06T10:16:59;101076.33;;;21.53;59.98
24336;BME280;33098;52.400;16.880;2022-07-06T10:19:27;101071.98;;;21.66;59.61
24336;BME280;33098;52.400;16.880;2022-07-06T10:21:56;101074.09;;;21.84;59.40
24336;BME280;33098;52.400;16.880;2022-07-06T10:24:24;101071.67;;;21.91;58.66
24336;BME280;33098;52.400;16.880;2022-07-06T10:26:51;101075.36;;;21.98;58.63
24336;BME280;33098;52.400;16.880;2022-07-06T10:29:19;101079.48;;;22.12;58.41
24336;BME280;33098;52.400;16.880;2022-07-06T10:31:47;101080.21;;;22.21;58.07
24336;BME280;33098;52.400;16.880;2022-07-06T10:34:16;101076.38;;;22.31;57.08
24336;BME280;33098;52.400;16.880;2022-07-06T10:36:48;101079.50;;;22.44;56.30
24336;BME280;33098;52.400;16.880;2022-07-06T10:39:15;101085.23;;;22.42;54.55
24336;BME280;33098;52.400;16.880;2022-07-06T10:42:01;101088.16;;;22.52;55.09
24336;BME280;33098;52.400;16.880;2022-07-06T10:44:27;101092.59;;;22.59;54.01
24336;BME280;33098;52.400;16.880;2022-07-06T10:46:56;101088.95;;;22.74;53.21
24336;BME280;33098;52.400;16.880;2022-07-06T10:49:24;101092.23;;;22.88;52.73
24336;BME280;33098;52.400;16.880;2022-07-06T10:51:56;101093.99;;;23.03;52.64
24336;BME280;33098;52.400;16.880;2022-07-06T10:54:25;101092.36;;;23.14;51.12
24336;BME280;33098;52.400;16.880;2022-07-06T10:56:52;101087.17;;;23.22;51.72
24336;BME280;33098;52.400;16.880;2022-07-06T10:59:22;101089.55;;;23.44;51.65
24336;BME280;33098;52.400;16.880;2022-07-06T11:04:37;101081.65;;;23.84;51.19
24336;BME280;33098;52.400;16.880;2022-07-06T11:07:12;101078.84;;;24.13;50.89
24336;BME280;33098;52.400;16.880;2022-07-06T11:09:39;101077.91;;;24.36;50.36
24336;BME280;33098;52.400;16.880;2022-07-06T11:12:15;101079.90;;;24.39;47.88
24336;BME280;33098;52.400;16.880;2022-07-06T11:14:43;101076.27;;;24.15;47.97
24336;BME280;33098;52.400;16.880;2022-07-06T11:17:10;101079.27;;;24.09;48.30
24336;BME280;33098;52.400;16.880;2022-07-06T11:19:37;101076.89;;;24.08;47.64
24336;BME280;33098;52.400;16.880;2022-07-06T11:22:07;101074.30;;;24.33;48.05
24336;BME280;33098;52.400;16.880;2022-07-06T11:24:37;101077.14;;;24.55;47.94
24336;BME280;33098;52.400;16.880;2022-07-06T11:27:05;101078.21;;;24.71;47.19
24336;BME280;33098;52.400;16.880;2022-07-06T11:29:34;101073.87;;;24.69;46.09
24336;BME280;33098;52.400;16.880;2022-07-06T11:32:04;101075.84;;;24.45;46.35
24336;BME280;33098;52.400;16.880;2022-07-06T11:34:32;101079.27;;;24.28;46.31
24336;BME280;33098;52.400;16.880;2022-07-06T11:37:04;101080.36;;;24.39;46.45
24336;BME280;33098;52.400;16.880;2022-07-06T11:39:33;101073.89;;;24.50;45.82
24336;BME280;33098;52.400;16.880;2022-07-06T11:42:02;101074.27;;;24.30;45.85
24336;BME280;33098;52.400;16.880;2022-07-06T11:44:30;101078.52;;;24.33;46.45
24336;BME280;33098;52.400;16.880;2022-07-06T11:46:57;101075.54;;;24.22;45.74
24336;BME280;33098;52.400;16.880;2022-07-06T11:49:27;101067.63;;;24.16;46.35
24336;BME280;33098;52.400;16.880;2022-07-06T11:51:54;101062.57;;;24.38;46.90
24336;BME280;33098;52.400;16.880;2022-07-06T11:54:22;101061.06;;;24.78;46.51
24336;BME280;33098;52.400;16.880;2022-07-06T11:59:24;101061.11;;;24.85;43.26
24336;BME280;33098;52.400;16.880;2022-07-06T12:02:17;101062.25;;;24.78;43.64
24336;BME280;33098;52.400;16.880;2022-07-06T12:04:45;101054.40;;;24.68;43.81
24336;BME280;33098;52.400;16.880;2022-07-06T12:07:16;101062.70;;;24.76;44.59
24336;BME280;33098;52.400;16.880;2022-07-06T12:09:46;101058.64;;;24.91;44.63
24336;BME280;33098;52.400;16.880;2022-07-06T12:12:13;101052.73;;;25.15;44.38
24336;BME280;33098;52.400;16.880;2022-07-06T12:14:41;101042.67;;;25.47;43.97
24336;BME280;33098;52.400;16.880;2022-07-06T12:17:13;101045.19;;;25.76;42.42
24336;BME280;33098;52.400;16.880;2022-07-06T12:19:41;101043.25;;;26.03;41.97
24336;BME280;33098;52.400;16.880;2022-07-06T12:22:08;101045.63;;;26.32;41.52
24336;BME280;33098;52.400;16.880;2022-07-06T12:24:36;101048.35;;;26.35;40.79
24336;BME280;33098;52.400;16.880;2022-07-06T12:27:11;101053.10;;;26.39;40.82
24336;BME280;33098;52.400;16.880;2022-07-06T12:29:38;101050.57;;;26.08;38.98
24336;BME280;33098;52.400;16.880;2022-07-06T12:32:05;101052.97;;;25.69;40.13
24336;BME280;33098;52.400;16.880;2022-07-06T12:34:32;101057.41;;;25.70;40.97
24336;BME280;33098;52.400;16.880;2022-07-06T12:37:06;101060.55;;;25.79;41.14
24336;BME280;33098;52.400;16.880;2022-07-06T12:39:41;101056.86;;;26.07;41.02
24336;BME280;33098;52.400;16.880;2022-07-06T12:42:08;101050.10;;;26.47;40.47
24336;BME280;33098;52.400;16.880;2022-07-06T12:44:43;101048.39;;;26.78;39.74
24336;BME280;33098;52.400;16.880;2022-07-06T12:47:10;101053.34;;;27.21;40.09
24336;BME280;33098;52.400;16.880;2022-07-06T12:49:38;101057.42;;;27.53;39.61
24336;BME280;33098;52.400;16.880;2022-07-06T12:52:10;101064.19;;;27.75;38.29
24336;BME280;33098;52.400;16.880;2022-07-06T12:54:50;101063.05;;;27.67;37.78